Paul, Idaho
Current Conditions -  °F | °C
As of 9:53 PM on Saturday 25 Oct 2014 (Local Time) from KBYI Reporting Station
Overcast Overcast  
Wind Chill: 62°   Ceiling: 8000
Heat Index: 62°   Visibility: 10mi
Dew Point: 31°   Wind: 14mph
Humidity: 31%   Direction: 260°W
Pressure: 29.88"   Gusts: NA
Location:  42.61°N, 113.78°W
Report Text: KBYI 260353Z AUTO 26012KT 10SM FEW060 BKN080 OVC095 17/M01 A2988 RMK AO2 PK WND 25034/0324 RAB20E47 SLP082 P0000 T01671006
Loading
Personal Weather Stations






























Interactive Weather Map
Tropical Storm Tracking
New forecast layout! Learn more

10-Day Weather Forecast

Advertisements
Track Severe Weather on mobile